Time;durP1;ratioP1;P1;durP2;ratioP2;P2;SDS_P1;SDS_P2;PMS_P1;PMS_P2;Temp;Humidity;BMP_temperature;BMP_pressure;BME280_temperature;BME280_humidity;BME280_pressure;Samples;Min_cycle;Max_cycle;Signal;HPM_P1;HPM_P2
2021/10/05 00:00:44;;;;;;;;;;;;;;;16.25;60.07;100006.47;4440330;32;19997;-92
2021/10/05 00:03:09;;;;;;;;;;;;;;;16.38;60.08;100001.47;4440752;32;20001;-92
2021/10/05 00:05:34;;;;;;;;;;;;;;;16.34;60.08;100005.19;4440203;32;23294;-91
2021/10/05 00:07:59;;;;;;;;;;;;;;;16.25;60.08;100013.50;4440424;32;19977;-90
2021/10/05 00:10:25;;;;;;;;;;;;;;;16.12;60.06;100013.31;4439565;32;26640;-89
2021/10/05 00:12:52;;;;;;;;;;;;;;;16.13;60.07;100004.50;4440823;32;19974;-90
2021/10/05 00:15:17;;;;;;;;;;;;;;;16.03;60.06;100005.03;4445804;32;19953;-90
2021/10/05 00:17:43;;;;;;;;;;;;;;;16.03;60.06;100007.66;4444784;32;19987;-92
2021/10/05 00:20:08;;;;;;;;;;;;;;;16.16;60.07;100012.22;4439719;32;25068;-91
2021/10/05 00:22:33;;;;;;;;;;;;;;;16.13;60.07;99999.25;4440364;32;19997;-91
2021/10/05 00:24:59;;;;;;;;;;;;;;;16.05;60.06;100001.38;4439881;32;31666;-92
2021/10/05 00:27:24;;;;;;;;;;;;;;;16.02;60.07;99993.66;4440444;32;20016;-91
2021/10/05 00:29:49;;;;;;;;;;;;;;;15.90;60.05;100000.41;4439833;32;28167;-91
2021/10/05 00:32:14;;;;;;;;;;;;;;;16.02;60.06;100003.31;4439891;32;19986;-91
2021/10/05 00:34:40;;;;;;;;;;;;;;;16.10;60.07;100002.03;4440198;32;19977;-90
2021/10/05 00:37:05;;;;;;;;;;;;;;;16.06;60.06;100003.09;4439994;32;19993;-91
2021/10/05 00:39:30;;;;;;;;;;;;;;;16.02;60.06;99998.06;4440360;32;20303;-90
2021/10/05 00:41:55;;;;;;;;;;;;;;;15.95;60.06;100001.00;4439773;32;19997;-92
2021/10/05 00:44:30;;;;;;;;;;;;;;;16.09;60.07;100000.34;4440116;32;20011;-92
2021/10/05 00:46:59;;;;;;;;;;;;;;;16.03;60.06;100010.28;4427428;32;20561;-92
2021/10/05 00:49:24;;;;;;;;;;;;;;;15.99;60.06;100006.09;4427658;32;20633;-92
2021/10/05 00:51:50;;;;;;;;;;;;;;;15.93;60.05;99999.41;4439621;32;26319;-92
2021/10/05 00:54:15;;;;;;;;;;;;;;;15.89;60.06;99997.84;4427442;32;19977;-91
2021/10/05 00:56:40;;;;;;;;;;;;;;;15.92;60.05;100001.16;4440200;32;20250;-92
2021/10/05 00:59:05;;;;;;;;;;;;;;;15.82;60.05;100002.53;4439547;32;23197;-91
2021/10/05 01:01:30;;;;;;;;;;;;;;;15.99;60.05;99996.44;4439416;32;21771;-91
2021/10/05 01:03:56;;;;;;;;;;;;;;;15.96;60.06;99996.59;4439670;32;26407;-91
2021/10/05 01:06:21;;;;;;;;;;;;;;;15.94;60.06;100001.09;4439968;32;20004;-89
2021/10/05 01:08:47;;;;;;;;;;;;;;;16.00;60.07;100006.03;4439306;32;25416;-88
2021/10/05 01:11:12;;;;;;;;;;;;;;;16.05;60.06;100006.63;4439889;32;20015;-89
2021/10/05 01:13:38;;;;;;;;;;;;;;;16.05;60.06;100008.41;4439682;32;19986;-89
2021/10/05 01:16:04;;;;;;;;;;;;;;;16.03;60.06;100005.03;4439718;32;20028;-89
2021/10/05 01:18:29;;;;;;;;;;;;;;;16.03;60.06;100008.50;4439715;32;20005;-89
2021/10/05 01:20:58;;;;;;;;;;;;;;;16.01;60.07;99999.00;4438868;32;23027;-88
2021/10/05 01:23:23;;;;;;;;;;;;;;;16.03;60.06;99995.38;4426680;32;20709;-89
2021/10/05 01:25:49;;;;;;;;;;;;;;;15.96;60.06;99999.25;4439313;32;19977;-89
2021/10/05 01:28:16;;;;;;;;;;;;;;;16.02;60.07;99991.03;4439316;32;19989;-89
2021/10/05 01:30:41;;;;;;;;;;;;;;;16.08;60.06;99992.50;4426420;32;19994;-89
2021/10/05 01:33:06;;;;;;;;;;;;;;;16.01;60.05;99991.13;4438861;32;20769;-89
2021/10/05 01:35:32;;;;;;;;;;;;;;;16.02;60.06;99985.78;4439104;32;23995;-90
2021/10/05 01:37:58;;;;;;;;;;;;;;;15.98;60.06;99986.03;4439117;32;26885;-89
2021/10/05 01:40:23;;;;;;;;;;;;;;;15.98;60.05;99983.41;4439246;32;19998;-89
2021/10/05 01:42:49;;;;;;;;;;;;;;;15.92;60.05;99981.94;4439422;32;19974;-89
2021/10/05 01:45:14;;;;;;;;;;;;;;;16.02;60.06;99985.78;4440826;32;25389;-89
2021/10/05 01:47:40;;;;;;;;;;;;;;;16.06;60.06;99982.06;4441053;32;22849;-89
2021/10/05 01:50:05;;;;;;;;;;;;;;;16.09;60.06;99976.69;4441474;32;19997;-88
2021/10/05 01:52:30;;;;;;;;;;;;;;;16.00;60.07;99974.53;4441135;32;20248;-89
2021/10/05 01:54:56;;;;;;;;;;;;;;;16.00;60.07;99971.91;4441044;32;22545;-90
2021/10/05 01:57:21;;;;;;;;;;;;;;;16.05;60.06;99975.12;4441387;32;19981;-89
2021/10/05 01:59:47;;;;;;;;;;;;;;;16.03;60.06;99976.13;4441095;32;20031;-88
2021/10/05 02:02:12;;;;;;;;;;;;;;;16.01;60.05;99967.50;4441310;32;20021;-88
2021/10/05 02:04:38;;;;;;;;;;;;;;;16.02;60.06;99966.56;4442060;32;19977;-90
2021/10/05 02:07:03;;;;;;;;;;;;;;;16.01;60.05;99964.88;4450453;32;20285;-90
2021/10/05 02:09:28;;;;;;;;;;;;;;;16.02;60.06;99970.03;4443658;32;20009;-90
2021/10/05 02:11:54;;;;;;;;;;;;;;;15.96;60.05;99968.59;4440912;32;19996;-88
2021/10/05 02:14:19;;;;;;;;;;;;;;;16.01;60.06;99968.34;4441029;32;20001;-90
2021/10/05 02:16:44;;;;;;;;;;;;;;;15.94;60.06;99970.44;4440970;32;19989;-89
2021/10/05 02:19:09;;;;;;;;;;;;;;;15.92;60.05;99966.19;4441234;32;20020;-90
2021/10/05 02:21:35;;;;;;;;;;;;;;;15.90;60.05;99957.53;4441096;32;20381;-90
2021/10/05 02:26:44;;;;;;;;;;;;;;;15.90;60.05;99965.44;4441390;32;19990;-89
2021/10/05 02:29:09;;;;;;;;;;;;;;;16.01;60.05;99967.50;4441044;32;20024;-90
2021/10/05 02:31:34;;;;;;;;;;;;;;;15.98;60.05;99968.50;4440791;32;19981;-90
2021/10/05 02:34:00;;;;;;;;;;;;;;;16.04;60.06;99969.97;4441094;32;20023;-89
2021/10/05 02:36:25;;;;;;;;;;;;;;;15.98;60.05;99967.66;4439944;32;26452;-89
2021/10/05 02:38:50;;;;;;;;;;;;;;;15.89;60.05;99969.81;4440886;32;19993;-89
2021/10/05 02:41:15;;;;;;;;;;;;;;;15.95;60.06;99977.38;4439729;32;31461;-88
2021/10/05 02:43:40;;;;;;;;;;;;;;;15.92;60.05;99976.69;4439484;32;21796;-89
2021/10/05 02:46:06;;;;;;;;;;;;;;;15.88;60.06;99975.16;4439532;32;20005;-89
2021/10/05 02:48:31;;;;;;;;;;;;;;;16.03;60.06;99976.13;4439394;32;20488;-89
2021/10/05 02:50:56;;;;;;;;;;;;;;;15.92;60.05;99974.06;4440093;32;20023;-88
2021/10/05 02:53:21;;;;;;;;;;;;;;;15.96;60.06;99972.97;4439595;32;26178;-88
2021/10/05 02:55:47;;;;;;;;;;;;;;;15.97;60.06;99969.44;4439844;32;20044;-89
2021/10/05 02:58:13;;;;;;;;;;;;;;;15.99;60.05;99977.22;4439697;32;20089;-87
2021/10/05 03:00:38;;;;;;;;;;;;;;;15.96;60.06;99972.97;4427180;32;19993;-88
2021/10/05 03:03:03;;;;;;;;;;;;;;;15.89;60.05;99971.59;4438104;32;22807;-86
2021/10/05 03:05:28;;;;;;;;;;;;;;;15.88;60.05;99972.53;4438732;32;19997;-89
2021/10/05 03:07:53;;;;;;;;;;;;;;;15.84;60.04;99963.94;4440276;32;21549;-88
2021/10/05 03:10:19;;;;;;;;;;;;;;;15.87;60.05;99966.44;4439992;32;34456;-90
2021/10/05 03:12:44;;;;;;;;;;;;;;;15.85;60.04;99970.03;4440976;32;20001;-88
2021/10/05 03:15:09;;;;;;;;;;;;;;;15.88;60.05;99960.25;4438060;32;23331;-86
2021/10/05 03:17:34;;;;;;;;;;;;;;;15.79;60.05;99960.69;4439413;32;20056;-87
2021/10/05 03:20:00;;;;;;;;;;;;;;;15.82;60.05;99962.31;4439474;32;19977;-86
2021/10/05 03:22:25;;;;;;;;;;;;;;;15.79;60.05;99960.69;4438734;32;20798;-90
2021/10/05 03:24:50;;;;;;;;;;;;;;;15.81;60.05;99955.37;4439970;32;19977;-88
2021/10/05 03:27:15;;;;;;;;;;;;;;;15.75;60.05;99959.16;4439381;32;30060;-88
2021/10/05 03:29:41;;;;;;;;;;;;;;;15.78;60.04;99947.66;4440970;32;20008;-89
2021/10/05 03:32:06;;;;;;;;;;;;;;;15.72;60.04;99950.59;4439532;32;23531;-89
2021/10/05 03:34:31;;;;;;;;;;;;;;;15.62;60.03;99940.56;4440185;32;19977;-88
2021/10/05 03:36:56;;;;;;;;;;;;;;;15.70;60.04;99944.56;4439653;32;21346;-88
2021/10/05 03:39:22;;;;;;;;;;;;;;;15.74;60.05;99938.22;4440105;32;20045;-89
2021/10/05 03:41:47;;;;;;;;;;;;;;;15.77;60.04;99940.69;4439813;32;22021;-88
2021/10/05 03:44:12;;;;;;;;;;;;;;;15.72;60.04;99945.34;4440049;32;20008;-88
2021/10/05 03:46:37;;;;;;;;;;;;;;;15.57;60.04;99947.75;4439670;32;20330;-88
2021/10/05 03:49:03;;;;;;;;;;;;;;;15.67;60.04;99945.56;4439600;32;20009;-88
2021/10/05 03:51:28;;;;;;;;;;;;;;;15.53;60.03;99956.69;4439112;32;28484;-88
2021/10/05 03:53:53;;;;;;;;;;;;;;;15.54;60.03;99954.94;4440234;32;20020;-88
2021/10/05 03:56:18;;;;;;;;;;;;;;;15.55;60.04;99949.59;4440935;32;20341;-88
2021/10/05 03:58:44;;;;;;;;;;;;;;;15.44;60.03;99959.78;4441058;32;22063;-89
2021/10/05 04:01:09;;;;;;;;;;;;;;;15.52;60.03;99951.53;4441234;32;19974;-88
2021/10/05 04:03:34;;;;;;;;;;;;;;;15.54;60.03;99952.31;4440085;32;20032;-88
2021/10/05 04:05:59;;;;;;;;;;;;;;;15.62;60.03;99944.97;4439156;32;19993;-89
2021/10/05 04:08:24;;;;;;;;;;;;;;;15.53;60.03;99942.75;4438292;32;25843;-88
2021/10/05 04:10:50;;;;;;;;;;;;;;;15.47;60.03;99946.53;4438793;32;19996;-86
2021/10/05 04:13:15;;;;;;;;;;;;;;;15.60;60.03;99938.91;4438043;32;25339;-87
2021/10/05 04:15:40;;;;;;;;;;;;;;;15.49;60.03;99944.66;4439179;32;19985;-88
2021/10/05 04:18:05;;;;;;;;;;;;;;;15.48;60.03;99939.50;4440164;32;20026;-89
2021/10/05 04:20:31;;;;;;;;;;;;;;;15.56;60.04;99937.34;4439718;32;24417;-88
2021/10/05 04:22:56;;;;;;;;;;;;;;;15.52;60.03;99944.50;4438880;32;27269;-88
2021/10/05 04:25:22;;;;;;;;;;;;;;;15.51;60.03;99940.19;4427145;32;19989;-88
2021/10/05 04:27:47;;;;;;;;;;;;;;;15.39;60.02;99939.97;4439157;32;20357;-89
2021/10/05 04:30:12;;;;;;;;;;;;;;;15.40;60.03;99929.38;4439030;32;27271;-87
2021/10/05 04:32:38;;;;;;;;;;;;;;;15.34;60.03;99938.38;4439923;32;20004;-89
2021/10/05 04:35:03;;;;;;;;;;;;;;;15.38;60.02;99941.72;4426987;32;20060;-89
2021/10/05 04:37:29;;;;;;;;;;;;;;;15.25;60.03;99946.72;4426967;32;19978;-91
2021/10/05 04:39:54;;;;;;;;;;;;;;;15.36;60.02;99947.03;4440218;32;20317;-89
2021/10/05 04:42:19;;;;;;;;;;;;;;;15.41;60.03;99938.09;4439735;32;20359;-88
2021/10/05 04:44:45;;;;;;;;;;;;;;;15.41;60.03;99941.59;4440102;32;19985;-89
2021/10/05 04:47:10;;;;;;;;;;;;;;;15.37;60.02;99953.13;4439872;32;20352;-89
2021/10/05 04:49:35;;;;;;;;;;;;;;;15.36;60.02;99956.66;4440275;32;20099;-90
2021/10/05 04:52:00;;;;;;;;;;;;;;;15.44;60.03;99945.81;4439992;32;20012;-90
2021/10/05 04:54:26;;;;;;;;;;;;;;;15.30;60.02;99949.09;4440086;32;19997;-88
2021/10/05 04:56:51;;;;;;;;;;;;;;;15.29;60.02;99953.50;4439719;32;19977;-89
2021/10/05 04:59:17;;;;;;;;;;;;;;;15.34;60.02;99956.75;4439580;32;20323;-89
2021/10/05 05:01:42;;;;;;;;;;;;;;;15.40;60.03;99958.25;4440050;32;19996;-89
2021/10/05 05:04:07;;;;;;;;;;;;;;;15.38;60.02;99960.09;4439579;32;20106;-90
2021/10/05 05:06:33;;;;;;;;;;;;;;;15.37;60.02;99955.75;4439877;32;19965;-90
2021/10/05 05:08:59;;;;;;;;;;;;;;;15.34;60.02;99966.38;4439956;32;19977;-89
2021/10/05 05:11:24;;;;;;;;;;;;;;;15.29;60.02;99971.00;4440029;32;19985;-89
2021/10/05 05:13:50;;;;;;;;;;;;;;;15.25;60.02;99970.31;4439657;32;20283;-88
2021/10/05 05:16:15;;;;;;;;;;;;;;;15.36;60.02;99973.25;4439147;32;19985;-89
2021/10/05 05:18:40;;;;;;;;;;;;;;;15.38;60.02;99969.72;4439725;32;20003;-90
2021/10/05 05:21:05;;;;;;;;;;;;;;;15.41;60.03;99966.97;4439587;32;19998;-89
2021/10/05 05:23:31;;;;;;;;;;;;;;;15.46;60.02;99971.06;4438180;32;22994;-90
2021/10/05 05:25:56;;;;;;;;;;;;;;;15.64;60.04;99964.94;4438465;32;21372;-89
2021/10/05 05:28:21;;;;;;;;;;;;;;;15.48;60.03;99960.47;4439476;32;19985;-89
2021/10/05 05:30:46;;;;;;;;;;;;;;;15.52;60.03;99968.13;4440717;32;19974;-90
2021/10/05 05:33:11;;;;;;;;;;;;;;;15.54;60.03;99976.78;4438889;32;26178;-89
2021/10/05 05:35:37;;;;;;;;;;;;;;;15.55;60.04;99975.00;4439439;32;20014;-90
2021/10/05 05:38:02;;;;;;;;;;;;;;;15.43;60.02;99971.22;4439136;32;25345;-89
2021/10/05 05:40:27;;;;;;;;;;;;;;;15.60;60.03;99973.03;4439014;32;22049;-90
2021/10/05 05:42:52;;;;;;;;;;;;;;;15.70;60.05;99976.91;4438972;32;19985;-89
2021/10/05 05:45:18;;;;;;;;;;;;;;;15.72;60.05;99985.56;4440660;32;20009;-90
2021/10/05 05:47:43;;;;;;;;;;;;;;;15.56;60.04;99979.31;4446256;32;22159;-89
2021/10/05 05:50:08;;;;;;;;;;;;;;;15.75;60.04;99976.69;4441366;32;21403;-89
2021/10/05 05:52:34;;;;;;;;;;;;;;;15.63;60.04;99975.53;4426633;32;20349;-89
2021/10/05 05:54:59;;;;;;;;;;;;;;;15.82;60.05;99978.06;4439192;32;20019;-89
2021/10/05 05:57:24;;;;;;;;;;;;;;;15.64;60.04;99978.06;4439231;32;19973;-89
2021/10/05 05:59:50;;;;;;;;;;;;;;;15.82;60.05;99981.53;4437368;32;20016;-90
2021/10/05 06:02:15;;;;;;;;;;;;;;;15.92;60.05;99984.56;4437354;32;20862;-89
2021/10/05 06:04:40;;;;;;;;;;;;;;;15.88;60.06;99978.63;4437338;32;20027;-87
2021/10/05 06:07:05;;;;;;;;;;;;;;;16.08;60.06;99982.84;4437455;32;19990;-88
2021/10/05 06:09:33;;;;;;;;;;;;;;;15.99;60.05;99987.72;4437920;32;19996;-87
2021/10/05 06:12:02;;;;;;;;;;;;;;;16.16;60.07;99988.56;4438472;32;20008;-88
2021/10/05 06:14:29;;;;;;;;;;;;;;;16.18;60.07;99991.13;4426228;32;19977;-88
2021/10/05 06:16:54;;;;;;;;;;;;;;;16.25;60.08;99989.88;4438706;32;19977;-89
2021/10/05 06:19:19;;;;;;;;;;;;;;;16.10;60.06;99994.16;4438880;32;20133;-89
2021/10/05 06:21:44;;;;;;;;;;;;;;;16.20;60.07;99984.00;4438596;32;20008;-89
2021/10/05 06:24:10;;;;;;;;;;;;;;;16.36;60.07;99977.03;4438281;32;19989;-90
2021/10/05 06:26:35;;;;;;;;;;;;;;;16.52;60.08;99992.84;4438597;32;19995;-89
2021/10/05 06:29:00;;;;;;;;;;;;;;;16.62;60.10;99996.69;4439340;32;20013;-88
2021/10/05 06:31:25;;;;;;;;;;;;;;;16.71;60.10;99995.38;4440193;32;27213;-89
2021/10/05 06:33:51;;;;;;;;;;;;;;;16.56;60.09;100000.50;4441105;32;20339;-89
2021/10/05 06:36:16;;;;;;;;;;;;;;;16.71;60.10;100004.13;4439207;32;19981;-89
2021/10/05 06:38:41;;;;;;;;;;;;;;;16.69;60.09;100003.34;4439223;32;23775;-90
2021/10/05 06:41:06;;;;;;;;;;;;;;;16.80;60.10;100003.66;4439252;32;20039;-89
2021/10/05 06:43:32;;;;;;;;;;;;;;;17.03;60.11;100001.53;4439201;32;20108;-89
2021/10/05 06:45:58;;;;;;;;;;;;;;;17.03;60.11;99997.12;4439034;32;22440;-90
2021/10/05 06:48:23;;;;;;;;;;;;;;;17.12;60.11;99994.00;4439647;32;20366;-90
2021/10/05 06:50:48;;;;;;;;;;;;;;;17.04;60.12;99995.38;4439473;32;20016;-90
2021/10/05 06:53:16;;;;;;;;;;;;;;;17.02;60.11;99991.94;4439278;32;19993;-88
2021/10/05 06:55:41;;;;;;;;;;;;;;;17.18;60.11;99982.28;4439418;32;19991;-89
2021/10/05 06:58:06;;;;;;;;;;;;;;;17.33;60.13;99983.22;4439486;32;19990;-90
2021/10/05 07:00:31;;;;;;;;;;;;;;;17.27;60.13;99983.53;4439074;32;20004;-90
2021/10/05 07:02:57;;;;;;;;;;;;;;;17.44;60.13;99980.81;4439409;32;20039;-90
2021/10/05 07:05:22;;;;;;;;;;;;;;;17.40;60.13;99984.56;4439213;32;20353;-90
2021/10/05 07:07:48;;;;;;;;;;;;;;;17.53;60.13;99992.63;4439299;32;20051;-89
2021/10/05 07:10:14;;;;;;;;;;;;;;;17.63;60.15;99988.53;4427063;32;20038;-90
2021/10/05 07:12:39;;;;;;;;;;;;;;;17.73;60.15;99982.66;4426603;32;20022;-90
2021/10/05 07:15:05;;;;;;;;;;;;;;;17.87;60.16;99979.25;4439434;32;20031;-90
2021/10/05 07:17:30;;;;;;;;;;;;;;;17.90;60.15;99965.91;4439298;32;19985;-88
2021/10/05 07:19:55;;;;;;;;;;;;;;;18.09;60.17;99950.69;4439061;32;23662;-90
2021/10/05 07:22:20;;;;;;;;;;;;;;;18.13;60.17;99958.41;4439215;32;19997;-90
2021/10/05 07:24:45;;;;;;;;;;;;;;;18.30;60.18;99960.91;4438616;32;26056;-89
2021/10/05 07:27:11;;;;;;;;;;;;;;;18.32;60.18;99972.19;4439233;32;20130;-90
2021/10/05 07:29:36;;;;;;;;;;;;;;;18.40;60.18;99964.66;4439406;32;24303;-90
2021/10/05 07:32:01;;;;;;;;;;;;;;;18.45;60.18;99959.94;4438748;32;23398;-89
2021/10/05 07:34:26;;;;;;;;;;;;;;;18.41;60.18;99953.16;4438927;32;21401;-89
2021/10/05 07:36:51;;;;;;;;;;;;;;;18.40;60.18;99947.06;4444927;32;27816;-88
2021/10/05 07:39:17;;;;;;;;;;;;;;;18.38;60.19;99925.22;4447796;32;20035;-89
2021/10/05 07:41:43;;;;;;;;;;;;;;;18.40;60.19;99936.50;4438479;32;20348;-90
2021/10/05 07:44:09;;;;;;;;;;;;;;;18.64;60.20;99934.19;4439701;32;19981;-90
2021/10/05 07:46:34;;;;;;;;;;;;;;;18.47;60.19;99923.81;4426619;32;20063;-90
2021/10/05 07:48:59;;;;;;;;;;;;;;;18.89;60.21;99928.22;4439206;32;20320;-90
2021/10/05 07:51:25;;;;;;;;;;;;;;;18.84;60.20;99925.03;4439310;32;20246;-90
2021/10/05 07:53:50;;;;;;;;;;;;;;;19.02;60.22;99936.22;4438983;32;20311;-90
2021/10/05 07:56:17;;;;;;;;;;;;;;;19.06;60.21;99936.84;4438991;32;20051;-89
2021/10/05 07:58:42;;;;;;;;;;;;;;;19.10;60.22;99941.81;4439207;32;20630;-88
2021/10/05 08:01:07;;;;;;;;;;;;;;;19.19;60.23;99943.91;4437471;32;22769;-89
2021/10/05 08:03:32;;;;;;;;;;;;;;;19.29;60.23;99952.06;4437854;32;24733;-90
2021/10/05 08:05:58;;;;;;;;;;;;;;;19.39;60.24;99958.41;4438377;32;30061;-90
2021/10/05 08:08:23;;;;;;;;;;;;;;;19.44;60.24;99958.16;4438524;32;24109;-90
2021/10/05 08:10:48;;;;;;;;;;;;;;;19.48;60.24;99963.13;4439164;32;20385;-90
2021/10/05 08:13:13;;;;;;;;;;;;;;;19.48;60.24;99968.41;4439090;32;19993;-89
2021/10/05 08:15:39;;;;;;;;;;;;;;;19.74;60.25;99958.78;4438644;32;20269;-89
2021/10/05 08:18:04;;;;;;;;;;;;;;;19.78;60.26;99960.28;4426323;32;20047;-90
2021/10/05 08:20:30;;;;;;;;;;;;;;;19.75;60.25;99967.56;4438924;32;19985;-90
2021/10/05 08:22:55;;;;;;;;;;;;;;;19.76;60.25;99956.03;4438982;32;19981;-90
2021/10/05 08:25:20;;;;;;;;;;;;;;;20.02;60.27;99939.28;4438952;32;20542;-90
2021/10/05 08:27:46;;;;;;;;;;;;;;;20.18;60.29;99923.22;4439133;32;20015;-90
2021/10/05 08:30:12;;;;;;;;;;;;;;;20.03;60.27;99919.00;4438876;32;20693;-90
2021/10/05 08:32:37;;;;;;;;;;;;;;;20.27;60.29;99914.66;4439945;32;20066;-90
2021/10/05 08:35:04;;;;;;;;;;;;;;;20.26;60.29;99923.53;4438785;32;19986;-90
2021/10/05 08:37:29;;;;;;;;;;;;;;;20.36;60.29;99910.53;4439135;32;20039;-89
2021/10/05 08:39:54;;;;;;;;;;;;;;;20.41;60.30;99914.59;4438423;32;20247;-89
2021/10/05 08:42:21;;;;;;;;;;;;;;;20.51;60.30;99920.06;4438341;32;20281;-89
2021/10/05 08:44:46;;;;;;;;;;;;;;;20.28;60.28;99926.91;4439021;32;20506;-90
2021/10/05 08:47:11;;;;;;;;;;;;;;;20.41;60.30;99927.81;4438558;32;20405;-90
2021/10/05 08:49:37;;;;;;;;;;;;;;;20.61;60.30;99928.22;4438134;32;22778;-91
2021/10/05 08:52:02;;;;;;;;;;;;;;;20.75;60.31;99925.41;4438370;32;19988;-91
2021/10/05 08:54:28;;;;;;;;;;;;;;;21.00;60.32;99922.69;4438526;32;20054;-90
2021/10/05 08:56:53;;;;;;;;;;;;;;;21.00;60.32;99927.16;4438957;32;20051;-90
2021/10/05 08:59:19;;;;;;;;;;;;;;;21.24;60.34;99924.53;4437916;32;29197;-90
2021/10/05 09:01:44;;;;;;;;;;;;;;;21.27;60.34;99919.88;4438678;32;19981;-91
2021/10/05 09:04:09;;;;;;;;;;;;;;;21.50;60.35;99920.81;4438380;32;19978;-90
2021/10/05 09:06:39;;;;;;;;;;;;;;;21.64;60.37;99925.09;4438571;32;20001;-90
2021/10/05 09:09:05;;;;;;;;;;;;;;;21.52;60.35;99915.41;4438849;32;19973;-89
2021/10/05 09:11:47;;;;;;;;;;;;;;;21.68;60.36;99905.34;4438452;32;20015;-89
2021/10/05 09:14:12;;;;;;;;;;;;;;;21.57;60.36;99911.47;4438438;32;19958;-89
2021/10/05 09:16:37;;;;;;;;;;;;;;;21.75;60.36;99910.06;4438084;32;20024;-90
2021/10/05 09:19:06;;;;;;;;;;;;;;;21.71;60.37;99913.06;4438250;32;19982;-90
2021/10/05 09:21:36;;;;;;;;;;;;;;;21.81;60.37;99905.28;4438472;32;19972;-90
2021/10/05 09:24:03;;;;;;;;;;;;;;;22.06;60.38;99905.12;4438791;32;19985;-90
2021/10/05 09:26:51;;;;;;;;;;;;;;;22.27;60.40;99899.97;4442182;32;19972;-90
2021/10/05 09:29:19;;;;;;;;;;;;;;;22.28;60.39;99888.41;4446515;32;20034;-90
2021/10/05 09:31:49;;;;;;;;;;;;;;;22.38;60.40;99873.44;4439642;32;19992;-90
2021/10/05 09:34:14;;;;;;;;;;;;;;;22.44;60.40;99872.94;4425128;32;20008;-90
2021/10/05 09:36:40;;;;;;;;;;;;;;;22.52;60.41;99869.72;4437763;32;19990;-90
2021/10/05 09:39:05;;;;;;;;;;;;;;;22.55;60.40;99865.00;4437636;32;20012;-90
2021/10/05 09:41:30;;;;;;;;;;;;;;;22.75;60.42;99875.81;4437389;32;26689;-90
2021/10/05 09:44:03;;;;;;;;;;;;;;;22.94;60.42;99884.84;4436822;32;26775;-90
2021/10/05 09:46:30;;;;;;;;;;;;;;;23.11;60.43;99886.13;4438029;32;20016;-91
2021/10/05 09:49:02;;;;;;;;;;;;;;;23.34;60.44;99894.03;4425159;32;20074;-91
2021/10/05 09:51:27;;;;;;;;;;;;;;;23.49;60.45;99908.69;4425247;32;20523;-91
2021/10/05 09:53:53;;;;;;;;;;;;;;;23.57;60.47;99896.47;4438053;32;20046;-90
2021/10/05 09:56:22;;;;;;;;;;;;;;;23.76;60.47;99886.97;4438108;32;20001;-90
2021/10/05 09:58:48;;;;;;;;;;;;;;;23.97;60.47;99881.66;4424924;32;19964;-90
2021/10/05 10:01:13;;;;;;;;;;;;;;;24.14;60.50;99873.06;4437892;32;20537;-90
2021/10/05 10:03:38;;;;;;;;;;;;;;;24.26;60.50;99879.13;4437461;32;26257;-90
2021/10/05 10:06:04;;;;;;;;;;;;;;;24.11;60.49;99876.81;4439606;32;20000;-90
2021/10/05 10:08:31;;;;;;;;;;;;;;;24.38;60.51;99865.66;4438554;32;27688;-89
2021/10/05 10:10:57;;;;;;;;;;;;;;;24.14;60.49;99881.91;4426624;32;20038;-88
2021/10/05 10:13:23;;;;;;;;;;;;;;;24.31;60.50;99879.59;4439651;32;19961;-90
2021/10/05 10:15:48;;;;;;;;;;;;;;;24.46;60.51;99881.78;4438860;32;25624;-90
2021/10/05 10:18:17;;;;;;;;;;;;;;;24.42;60.50;99877.72;4439637;32;19978;-90
2021/10/05 10:20:43;;;;;;;;;;;;;;;24.57;60.51;99878.16;4426553;32;20004;-90
2021/10/05 10:23:21;;;;;;;;;;;;;;;24.80;60.53;99871.63;4426305;32;20010;-90
2021/10/05 10:25:51;;;;;;;;;;;;;;;24.70;60.53;99868.12;4427067;32;20083;-89
2021/10/05 10:28:16;;;;;;;;;;;;;;;24.96;60.54;99863.13;4426764;32;19991;-90
2021/10/05 10:30:52;;;;;;;;;;;;;;;25.08;60.55;99851.41;4439289;32;20013;-89
2021/10/05 10:33:17;;;;;;;;;;;;;;;25.17;60.55;99844.41;4426166;32;20004;-90
2021/10/05 10:35:52;;;;;;;;;;;;;;;25.30;60.56;99828.97;4439332;32;20013;-90
2021/10/05 10:38:21;;;;;;;;;;;;;;;25.42;60.57;99823.50;4425944;32;20048;-89
2021/10/05 10:40:46;;;;;;;;;;;;;;;25.53;60.56;99832.16;4438743;32;20368;-89
2021/10/05 10:43:15;;;;;;;;;;;;;;;25.44;60.56;99833.03;4439162;32;20359;-89
2021/10/05 10:45:41;;;;;;;;;;;;;;;25.53;60.56;99832.16;4426666;32;19985;-89
2021/10/05 10:48:06;;;;;;;;;;;;;;;25.30;60.56;99833.44;4426680;32;19992;-90
2021/10/05 10:50:33;;;;;;;;;;;;;;;25.42;60.56;99835.00;4439752;32;20000;-91
2021/10/05 10:53:02;;;;;;;;;;;;;;;25.35;60.56;99837.38;4440054;32;20431;-89
2021/10/05 10:55:31;;;;;;;;;;;;;;;25.61;60.58;99831.47;4439816;32;20011;-90
2021/10/05 10:57:56;;;;;;;;;;;;;;;25.60;60.56;99840.44;4426429;32;19996;-90
2021/10/05 11:00:23;;;;;;;;;;;;;;;25.78;60.58;99841.41;4439503;32;19998;-89
2021/10/05 11:02:57;;;;;;;;;;;;;;;25.94;60.59;99825.66;4426611;32;20052;-90
2021/10/05 11:05:23;;;;;;;;;;;;;;;26.25;60.61;99825.37;4439776;32;19997;-90
2021/10/05 11:07:52;;;;;;;;;;;;;;;26.23;60.60;99824.69;4425960;32;20326;-89
2021/10/05 11:10:22;;;;;;;;;;;;;;;25.98;60.59;99813.69;4439188;32;19957;-90
2021/10/05 11:12:48;;;;;;;;;;;;;;;26.15;60.59;99814.75;4426464;32;19985;-89
2021/10/05 11:15:13;;;;;;;;;;;;;;;26.36;60.61;99813.72;4439632;32;20030;-90
2021/10/05 11:17:44;;;;;;;;;;;;;;;26.32;60.61;99815.81;4448436;32;19974;-89
2021/10/05 11:20:09;;;;;;;;;;;;;;;26.37;60.61;99813.56;4443977;32;19961;-91
2021/10/05 11:22:34;;;;;;;;;;;;;;;26.40;60.61;99802.59;4438935;32;20025;-90
2021/10/05 11:25:00;;;;;;;;;;;;;;;26.31;60.60;99803.47;4438906;32;20289;-90
2021/10/05 11:27:25;;;;;;;;;;;;;;;26.46;60.62;99811.81;4439247;32;20333;-90
2021/10/05 11:29:50;;;;;;;;;;;;;;;26.48;60.61;99812.50;4438739;32;20273;-89
2021/10/05 11:32:18;;;;;;;;;;;;;;;26.67;60.63;99811.56;4438903;32;20017;-90
2021/10/05 11:34:43;;;;;;;;;;;;;;;26.62;60.63;99806.69;4425960;32;20057;-90
2021/10/05 11:37:11;;;;;;;;;;;;;;;26.57;60.62;99808.97;4438988;32;20303;-88
2021/10/05 11:39:36;;;;;;;;;;;;;;;26.81;60.64;99813.72;4425543;32;20030;-90
2021/10/05 11:42:04;;;;;;;;;;;;;;;26.82;60.64;99791.38;4440356;32;20024;-90
2021/10/05 11:44:29;;;;;;;;;;;;;;;27.03;60.65;99794.63;4438794;32;20024;-88
2021/10/05 11:46:59;;;;;;;;;;;;;;;26.97;60.64;99784.47;4438729;32;19977;-90
2021/10/05 11:49:34;;;;;;;;;;;;;;;26.87;60.65;99775.72;4426233;32;19986;-90
2021/10/05 11:52:00;;;;;;;;;;;;;;;26.98;60.64;99786.19;4426038;32;20004;-90
2021/10/05 11:54:26;;;;;;;;;;;;;;;27.11;60.64;99777.81;4438869;32;19985;-90
2021/10/05 11:56:51;;;;;;;;;;;;;;;27.13;60.65;99773.97;4425463;32;20346;-89
2021/10/05 11:59:21;;;;;;;;;;;;;;;27.18;60.66;99777.03;4438927;32;19993;-89
2021/10/05 12:01:46;;;;;;;;;;;;;;;27.20;60.66;99758.16;4439231;32;19990;-90
2021/10/05 12:04:11;;;;;;;;;;;;;;;27.16;60.65;99762.97;4438433;32;26114;-91
2021/10/05 12:06:38;;;;;;;;;;;;;;;27.18;60.66;99758.31;4438217;32;28830;-91
2021/10/05 12:09:03;;;;;;;;;;;;;;;27.19;60.66;99748.47;4438889;32;19977;-90
2021/10/05 12:11:35;;;;;;;;;;;;;;;27.28;60.67;99758.25;4438917;32;20901;-90
2021/10/05 12:14:01;;;;;;;;;;;;;;;27.28;60.67;99758.25;4426073;32;20692;-90
2021/10/05 12:16:26;;;;;;;;;;;;;;;27.17;60.65;99761.16;4425852;32;20001;-89
2021/10/05 12:18:55;;;;;;;;;;;;;;;27.16;60.66;99767.50;4438182;32;26064;-90
2021/10/05 12:21:20;;;;;;;;;;;;;;;27.12;60.66;99769.62;4439311;32;20377;-89
2021/10/05 12:23:55;;;;;;;;;;;;;;;27.02;60.64;99760.03;4438858;32;19985;-91
2021/10/05 12:26:20;;;;;;;;;;;;;;;26.98;60.65;99763.97;4437442;32;19989;-89
2021/10/05 12:28:58;;;;;;;;;;;;;;;26.91;60.64;99763.72;4438291;32;20014;-89
2021/10/05 12:31:27;;;;;;;;;;;;;;;26.86;60.64;99750.84;4438689;32;20009;-90
2021/10/05 12:33:53;;;;;;;;;;;;;;;26.97;60.65;99749.75;4439685;32;19999;-90
2021/10/05 12:36:19;;;;;;;;;;;;;;;27.05;60.65;99754.38;4425675;32;20270;-88
2021/10/05 12:38:44;;;;;;;;;;;;;;;26.87;60.65;99747.19;4438581;32;20015;-89
2021/10/05 12:41:09;;;;;;;;;;;;;;;26.97;60.65;99740.91;4438033;32;27823;-90